Time;durP1;ratioP1;P1;durP2;ratioP2;P2;SDS_P1;SDS_P2;PMS_P1;PMS_P2;Temp;Humidity;BMP_temperature;BMP_pressure;BME280_temperature;BME280_humidity;BME280_pressure;Samples;Min_cycle;Max_cycle;Signal;HPM_P1;HPM_P2
2022/05/02 00:00:14;;;;;;;4.07;2.50;;;6.30;99.90;;;;;;5071869;28;20040;-73
2022/05/02 00:02:40;;;;;;;5.57;1.80;;;6.40;99.90;;;;;;5038444;28;20480;-72
2022/05/02 00:05:07;;;;;;;2.60;1.98;;;6.20;99.90;;;;;;5071532;28;20052;-73
2022/05/02 00:07:33;;;;;;;2.25;1.77;;;6.20;99.90;;;;;;5054841;28;20080;-72
2022/05/02 00:09:59;;;;;;;4.05;1.50;;;6.50;99.90;;;;;;5071480;28;20048;-72
2022/05/02 00:12:25;;;;;;;3.67;2.17;;;5.80;99.90;;;;;;5038235;28;20101;-72
2022/05/02 00:14:51;;;;;;;3.25;1.33;;;6.20;99.90;;;;;;5071620;28;20048;-72
2022/05/02 00:17:16;;;;;;;1.90;1.42;;;6.30;99.90;;;;;;5071245;28;20059;-72
2022/05/02 00:19:42;;;;;;;3.85;1.60;;;6.00;99.90;;;;;;5071308;28;20040;-72
2022/05/02 00:22:08;;;;;;;2.55;1.58;;;6.70;99.90;;;;;;5054721;28;20161;-72
2022/05/02 00:24:34;;;;;;;2.53;1.52;;;6.60;99.90;;;;;;5071269;28;20076;-72
2022/05/02 00:26:59;;;;;;;4.82;1.60;;;6.10;99.90;;;;;;5054693;28;20055;-72
2022/05/02 00:29:25;;;;;;;3.33;1.58;;;6.60;99.90;;;;;;5071509;28;20037;-72
2022/05/02 00:31:51;;;;;;;3.78;1.98;;;6.00;99.90;;;;;;5054572;28;20041;-73
2022/05/02 00:34:16;;;;;;;3.17;1.75;;;6.10;99.90;;;;;;5071267;28;20043;-73
2022/05/02 00:36:43;;;;;;;1.65;1.30;;;6.30;99.90;;;;;;5054548;28;20045;-73
2022/05/02 00:39:09;;;;;;;3.03;1.50;;;6.10;99.90;;;;;;5058409;28;20086;-73
2022/05/02 00:41:35;;;;;;;4.78;1.70;;;6.30;99.90;;;;;;5075210;28;20036;-73
2022/05/02 00:44:00;;;;;;;2.42;1.80;;;6.10;99.90;;;;;;5075171;28;20098;-73
2022/05/02 00:46:26;;;;;;;2.97;1.42;;;6.30;99.90;;;;;;5075073;28;20040;-71
2022/05/02 00:48:53;;;;;;;4.68;1.58;;;5.90;99.90;;;;;;5075284;28;20037;-71
2022/05/02 00:51:20;;;;;;;3.03;1.80;;;6.00;99.90;;;;;;5074977;28;20044;-72
2022/05/02 00:53:48;;;;;;;2.60;2.03;;;6.20;99.90;;;;;;5074872;28;20128;-72
2022/05/02 00:56:20;;;;;;;3.75;1.88;;;6.60;99.90;;;;;;5074841;28;20063;-71
2022/05/02 00:58:48;;;;;;;3.58;1.73;;;6.20;99.90;;;;;;5075067;28;20497;-71
2022/05/02 01:01:13;;;;;;;4.30;1.98;;;5.80;99.90;;;;;;5058174;28;20044;-72
2022/05/02 01:03:39;;;;;;;4.88;1.98;;;5.60;99.90;;;;;;5058133;28;20045;-72
2022/05/02 01:08:52;;;;;;;4.47;2.50;;;6.00;99.90;;;;;;5074852;28;20499;-72
2022/05/02 01:11:17;;;;;;;2.85;1.80;;;5.40;99.90;;;;;;5074553;28;20177;-72
2022/05/02 01:13:49;;;;;;;4.63;2.28;;;5.80;99.90;;;;;;5074588;28;20509;-72
2022/05/02 01:16:27;;;;;;;3.90;2.13;;;6.10;99.90;;;;;;5074362;28;20061;-72
2022/05/02 01:18:57;;;;;;;2.65;1.80;;;5.90;99.90;;;;;;5074534;28;20045;-72
2022/05/02 01:21:26;;;;;;;2.40;1.35;;;5.50;99.90;;;;;;5057823;28;20500;-72
2022/05/02 01:23:54;;;;;;;2.60;1.95;;;5.90;99.90;;;;;;5057618;28;20037;-72
2022/05/02 01:26:20;;;;;;;1.25;1.15;;;5.80;99.90;;;;;;5074585;28;20040;-72
2022/05/02 01:28:49;;;;;;;4.00;2.15;;;5.90;99.90;;;;;;5057974;28;20126;-72
2022/05/02 01:31:16;;;;;;;3.45;1.95;;;5.50;99.90;;;;;;5074268;28;20041;-72
2022/05/02 01:33:42;;;;;;;2.72;1.77;;;5.90;99.90;;;;;;5074415;28;20036;-72
2022/05/02 01:36:09;;;;;;;2.78;1.75;;;5.80;99.90;;;;;;5074066;28;20045;-72
2022/05/02 01:38:35;;;;;;;2.85;1.30;;;5.90;99.90;;;;;;5074086;28;20415;-72
2022/05/02 01:41:05;;;;;;;4.10;1.75;;;5.80;99.90;;;;;;5057534;28;20045;-72
2022/05/02 01:43:31;;;;;;;4.00;1.98;;;5.60;99.90;;;;;;5057792;28;20036;-72
2022/05/02 01:45:58;;;;;;;3.10;1.90;;;5.40;99.90;;;;;;5057465;28;20051;-72
2022/05/02 01:48:24;;;;;;;5.40;1.65;;;5.70;99.90;;;;;;5056906;28;20041;-74
2022/05/02 01:50:50;;;;;;;3.50;2.03;;;5.50;99.90;;;;;;5073891;28;20385;-73
2022/05/02 01:53:16;;;;;;;2.70;1.88;;;5.30;99.90;;;;;;5057235;28;20040;-73
2022/05/02 01:55:42;;;;;;;16.52;2.22;;;5.60;99.90;;;;;;5073994;28;20043;-72
2022/05/02 01:58:07;;;;;;;4.88;2.65;;;5.50;99.90;;;;;;5073743;28;20047;-73
2022/05/02 02:00:33;;;;;;;2.90;1.77;;;5.50;99.90;;;;;;5074052;28;20041;-73
2022/05/02 02:02:59;;;;;;;5.97;2.60;;;5.20;99.90;;;;;;5057059;28;20037;-73
2022/05/02 02:08:09;;;;;;;3.33;2.33;;;5.10;99.90;;;;;;5059428;28;20468;-73
2022/05/02 02:10:35;;;;;;;5.95;2.03;;;5.20;99.90;;;;;;5057439;28;20068;-73
2022/05/02 02:13:01;;;;;;;5.03;2.97;;;5.60;99.90;;;;;;5056805;28;20071;-73
2022/05/02 02:15:27;;;;;;;3.33;2.30;;;5.20;99.90;;;;;;5040257;28;20072;-73
2022/05/02 02:17:52;;;;;;;4.45;2.47;;;5.10;99.90;;;;;;5040159;28;20097;-73
2022/05/02 02:20:18;;;;;;;2.25;1.73;;;5.00;99.90;;;;;;5073700;28;20392;-73
2022/05/02 02:22:44;;;;;;;2.83;2.08;;;5.10;99.90;;;;;;5073610;28;20036;-71
2022/05/02 02:25:10;;;;;;;5.40;2.28;;;5.20;99.90;;;;;;5056568;28;20190;-72
2022/05/02 02:27:36;;;;;;;2.67;1.80;;;5.10;99.90;;;;;;5073461;28;20502;-72
2022/05/02 02:30:01;;;;;;;3.95;2.10;;;5.10;99.90;;;;;;5073108;28;20048;-72
2022/05/02 02:32:27;;;;;;;3.03;2.17;;;4.90;99.90;;;;;;5073346;28;20131;-72
2022/05/02 02:34:53;;;;;;;2.85;2.15;;;5.20;99.90;;;;;;5056562;28;20040;-72
2022/05/02 02:37:19;;;;;;;1.92;1.20;;;5.30;99.90;;;;;;5072894;28;20153;-71
2022/05/02 02:39:45;;;;;;;4.57;2.17;;;5.30;99.90;;;;;;5073207;28;20044;-71
2022/05/02 02:42:11;;;;;;;1.83;1.20;;;5.80;99.90;;;;;;5056234;28;20044;-72
2022/05/02 02:44:37;;;;;;;3.22;2.25;;;4.90;99.90;;;;;;5056504;28;20559;-71
2022/05/02 02:47:03;;;;;;;6.28;2.20;;;4.90;99.90;;;;;;5072778;28;20123;-72
2022/05/02 02:49:29;;;;;;;3.40;1.90;;;4.80;99.90;;;;;;5056064;28;20044;-71
2022/05/02 02:51:55;;;;;;;2.95;1.98;;;5.00;99.90;;;;;;5072690;28;20063;-73
2022/05/02 02:54:21;;;;;;;4.93;2.58;;;5.20;99.90;;;;;;5072880;28;20037;-71
2022/05/02 02:56:47;;;;;;;2.95;2.05;;;4.90;99.90;;;;;;5055855;28;20036;-72
2022/05/02 02:59:13;;;;;;;3.70;2.28;;;5.10;99.90;;;;;;5072400;28;20051;-72
2022/05/02 03:01:40;;;;;;;2.33;1.60;;;5.10;99.90;;;;;;5072027;28;20545;-72
2022/05/02 03:06:50;;;;;;;5.65;2.80;;;5.50;99.90;;;;;;5072388;28;20080;-71
2022/05/02 03:09:16;;;;;;;5.38;1.42;;;4.90;99.90;;;;;;5072334;28;20440;-71
2022/05/02 03:11:42;;;;;;;6.82;2.40;;;4.80;99.90;;;;;;5055624;28;20040;-71
2022/05/02 03:14:08;;;;;;;4.22;2.45;;;4.70;99.90;;;;;;5055596;28;20117;-71
2022/05/02 03:16:34;;;;;;;5.78;2.83;;;4.90;99.90;;;;;;5072059;28;20052;-72
2022/05/02 03:18:59;;;;;;;4.15;2.45;;;4.80;99.90;;;;;;5072173;28;20171;-72
2022/05/02 03:21:25;;;;;;;4.65;2.35;;;5.30;99.90;;;;;;5055532;28;20396;-72
2022/05/02 03:23:51;;;;;;;1.95;1.27;;;4.40;99.90;;;;;;5072030;28;20032;-72
2022/05/02 03:26:16;;;;;;;2.70;1.60;;;4.60;99.90;;;;;;5055740;28;20056;-72
2022/05/02 03:28:42;;;;;;;4.88;2.88;;;5.00;99.90;;;;;;5055616;28;20048;-72
2022/05/02 03:31:08;;;;;;;3.67;1.80;;;4.50;99.90;;;;;;5055601;28;20036;-71
2022/05/02 03:33:33;;;;;;;6.30;2.40;;;4.90;99.90;;;;;;5071884;28;20059;-71
2022/05/02 03:35:59;;;;;;;2.55;1.92;;;4.70;99.90;;;;;;5071805;28;20045;-72
2022/05/02 03:38:25;;;;;;;5.93;2.28;;;4.70;99.90;;;;;;5055224;28;20169;-72
2022/05/02 03:40:50;;;;;;;5.22;2.85;;;4.80;99.90;;;;;;5071764;28;20036;-72
2022/05/02 03:43:16;;;;;;;4.78;3.05;;;4.60;99.90;;;;;;5055196;28;20040;-72
2022/05/02 03:45:42;;;;;;;6.35;2.78;;;4.60;99.90;;;;;;5055153;28;20071;-72
2022/05/02 03:48:07;;;;;;;4.00;2.00;;;4.90;99.90;;;;;;5071670;28;20101;-72
2022/05/02 03:50:33;;;;;;;3.30;2.60;;;4.40;99.90;;;;;;5055042;28;20040;-72
2022/05/02 03:52:59;;;;;;;2.95;2.20;;;4.40;99.90;;;;;;5054955;28;20083;-72
2022/05/02 03:55:25;;;;;;;5.63;2.85;;;4.50;99.90;;;;;;5055116;28;20048;-72
2022/05/02 03:57:50;;;;;;;7.57;2.88;;;4.40;99.90;;;;;;5038237;28;20040;-72
2022/05/02 04:00:17;;;;;;;3.67;2.38;;;4.50;99.90;;;;;;5071589;28;20048;-72
2022/05/02 04:02:42;;;;;;;4.45;2.65;;;4.40;99.90;;;;;;5072103;28;20044;-73
2022/05/02 04:05:08;;;;;;;3.97;2.67;;;4.40;99.90;;;;;;5054836;28;20037;-73
2022/05/02 04:07:34;;;;;;;6.47;2.25;;;4.50;99.90;;;;;;5054814;28;20089;-72
2022/05/02 04:10:00;;;;;;;3.83;2.25;;;4.60;99.90;;;;;;5071469;28;20033;-72
2022/05/02 04:12:27;;;;;;;2.63;1.98;;;4.60;99.90;;;;;;5071260;28;20051;-72
2022/05/02 04:14:52;;;;;;;4.05;1.95;;;4.40;99.90;;;;;;5071649;28;20074;-72
2022/05/02 04:17:18;;;;;;;5.55;3.15;;;4.50;99.90;;;;;;5054523;28;20399;-72
2022/05/02 04:19:44;;;;;;;5.50;3.35;;;4.30;99.90;;;;;;5054651;28;20041;-72
2022/05/02 04:22:09;;;;;;;8.27;3.47;;;5.10;99.90;;;;;;5071350;28;20040;-72
2022/05/02 04:24:35;;;;;;;8.35;3.45;;;4.70;99.90;;;;;;5054620;28;20067;-72
2022/05/02 04:27:01;;;;;;;6.05;2.25;;;4.40;99.90;;;;;;5071345;28;20117;-73
2022/05/02 04:29:26;;;;;;;6.40;2.72;;;4.50;99.90;;;;;;5071569;28;20041;-72
2022/05/02 04:31:52;;;;;;;10.60;4.15;;;4.50;99.90;;;;;;5071255;28;20040;-74
2022/05/02 04:34:18;;;;;;;7.22;2.92;;;4.40;99.90;;;;;;5071236;28;20408;-73
2022/05/02 04:36:43;;;;;;;5.40;3.10;;;4.40;99.90;;;;;;5071156;28;20077;-73
2022/05/02 04:39:09;;;;;;;8.70;2.95;;;4.50;99.90;;;;;;5071206;28;20032;-72
2022/05/02 04:41:35;;;;;;;3.95;2.25;;;4.80;99.90;;;;;;5071220;28;20102;-71
2022/05/02 04:44:00;;;;;;;4.72;2.25;;;4.70;99.90;;;;;;5037906;28;20036;-71
2022/05/02 04:46:27;;;;;;;2.90;1.83;;;4.50;99.90;;;;;;5037948;28;20131;-71
2022/05/02 04:48:53;;;;;;;3.35;2.50;;;4.90;99.90;;;;;;5071399;28;20036;-72
2022/05/02 04:51:19;;;;;;;4.35;2.28;;;4.70;99.90;;;;;;5054432;28;20076;-72
2022/05/02 04:53:44;;;;;;;2.30;1.75;;;4.80;99.90;;;;;;5071060;28;20044;-73
2022/05/02 04:56:11;;;;;;;3.70;2.42;;;4.90;99.90;;;;;;5070925;28;20048;-72
2022/05/02 04:58:37;;;;;;;5.70;2.85;;;4.90;99.90;;;;;;5070964;28;20066;-72
2022/05/02 05:01:06;;;;;;;3.30;2.15;;;4.80;99.90;;;;;;5070979;28;20037;-72
2022/05/02 05:03:32;;;;;;;3.67;2.47;;;5.00;99.90;;;;;;5070950;28;20040;-72
2022/05/02 05:05:57;;;;;;;3.80;2.50;;;4.90;99.90;;;;;;5054199;28;20066;-73
2022/05/02 05:08:23;;;;;;;4.93;2.83;;;5.30;99.90;;;;;;5070901;28;20074;-73
2022/05/02 05:11:16;;;;;;;5.03;2.92;;;6.20;99.90;;;;;;5070931;28;20067;-73
2022/05/02 05:17:34;;;;;;;4.68;2.47;;;5.40;99.90;;;;;;5074212;28;20139;-72
2022/05/02 05:20:06;;;;;;;5.45;3.17;;;5.20;99.90;;;;;;5068614;28;20045;-73
2022/05/02 05:23:07;;;;;;;3.95;2.90;;;5.40;99.90;;;;;;5070745;28;20044;-73
2022/05/02 05:26:00;;;;;;;13.53;2.77;;;5.40;99.90;;;;;;5061712;28;20083;-71
2022/05/02 05:28:43;;;;;;;5.28;3.17;;;5.40;99.90;;;;;;5074568;28;20290;-71
2022/05/02 05:31:24;;;;;;;5.97;2.92;;;5.60;99.90;;;;;;5057630;28;20080;-72
2022/05/02 05:33:52;;;;;;;;;;;5.70;99.90;;;;;;5074854;28;20073;-73
2022/05/02 05:36:48;;;;;;;4.28;2.40;;;6.30;99.90;;;;;;5057643;28;19924;-73
2022/05/02 05:39:43;;;;;;;4.97;2.55;;;5.90;99.90;;;;;;5074101;28;20041;-73
2022/05/02 05:42:21;;;;;;;5.75;2.67;;;6.20;99.90;;;;;;5074088;28;20044;-72
2022/05/02 05:45:01;;;;;;;6.75;3.20;;;6.80;99.90;;;;;;5074085;28;20086;-73
2022/05/02 05:48:09;;;;;;;4.40;2.72;;;6.30;99.90;;;;;;5074147;28;20063;-74
2022/05/02 05:50:47;;;;;;;3.55;2.33;;;6.50;99.90;;;;;;5068265;28;20048;-74
2022/05/02 05:53:32;;;;;;;4.00;2.60;;;6.60;99.90;;;;;;5073949;28;20044;-73
2022/05/02 05:56:23;;;;;;;6.45;2.50;;;7.00;99.90;;;;;;5073790;28;20080;-73
2022/05/02 05:59:05;;;;;;;6.07;2.90;;;6.90;99.90;;;;;;5057174;28;20033;-73
2022/05/02 06:01:58;;;;;;;2.95;2.28;;;;;;;;;;5073654;28;20075;-73
2022/05/02 06:04:27;;;;;;;4.88;2.40;;;7.20;99.90;;;;;;5073693;28;20041;-73
2022/05/02 06:06:54;;;;;;;4.32;2.30;;;7.10;99.90;;;;;;5073675;28;20048;-73
2022/05/02 06:09:21;;;;;;;4.93;2.58;;;7.30;99.90;;;;;;5040320;28;20133;-72
2022/05/02 06:11:49;;;;;;;7.20;3.50;;;7.30;99.90;;;;;;5073697;28;20490;-72
2022/05/02 06:14:15;;;;;;;5.00;2.92;;;7.40;99.90;;;;;;5056684;28;20123;-73
2022/05/02 06:19:33;;;;;;;4.32;2.38;;;7.60;99.90;;;;;;5059422;28;20043;-73
2022/05/02 06:22:03;;;;;;;4.03;2.20;;;7.80;99.90;;;;;;5073333;28;20040;-73
2022/05/02 06:24:32;;;;;;;7.00;3.05;;;7.90;99.90;;;;;;5056474;28;20036;-73
2022/05/02 06:27:02;;;;;;;5.85;2.80;;;8.10;99.90;;;;;;5073344;28;20480;-71
2022/05/02 06:29:27;;;;;;;3.08;2.47;;;8.20;99.90;;;;;;5056658;28;20131;-72
2022/05/02 06:31:55;;;;;;;3.92;2.55;;;8.40;99.90;;;;;;5073091;28;20131;-72
2022/05/02 06:34:26;;;;;;;3.95;2.63;;;8.50;99.90;;;;;;5056274;28;20054;-71
2022/05/02 06:36:52;;;;;;;5.35;2.75;;;;;;;;;;5072857;28;20127;-72
2022/05/02 06:39:39;;;;;;;5.53;2.88;;;8.90;99.90;;;;;;5056423;28;20076;-72
2022/05/02 06:42:35;;;;;;;7.00;3.20;;;9.10;99.90;;;;;;5073002;28;20133;-72
2022/05/02 06:45:04;;;;;;;3.67;2.45;;;9.30;99.90;;;;;;5072953;28;20044;-72
2022/05/02 06:47:58;;;;;;;4.13;2.42;;;9.50;99.90;;;;;;5073074;28;20044;-72
2022/05/02 06:50:25;;;;;;;4.43;2.47;;;9.70;99.90;;;;;;5072856;28;20043;-72
2022/05/02 06:53:26;;;;;;;4.55;2.40;;;9.80;99.90;;;;;;5056068;28;20048;-72
2022/05/02 06:56:21;;;;;;;3.47;2.13;;;10.00;99.90;;;;;;5050517;28;20048;-73
2022/05/02 06:58:50;;;;;;;3.60;2.13;;;10.20;99.90;;;;;;5072646;28;20059;-73
2022/05/02 07:01:37;;;;;;;3.08;2.03;;;10.40;99.90;;;;;;5072656;28;20043;-73
2022/05/02 07:04:14;;;;;;;5.00;2.60;;;10.50;99.90;;;;;;5072766;28;20396;-73
2022/05/02 07:07:15;;;;;;;4.03;2.00;;;10.60;99.90;;;;;;5072397;28;20041;-73
2022/05/02 07:09:46;;;;;;;5.13;2.38;;;10.80;99.90;;;;;;5050991;28;20057;-73
2022/05/02 07:12:25;;;;;;;4.97;3.10;;;11.00;99.90;;;;;;5055808;28;20123;-73
2022/05/02 07:15:03;;;;;;;3.13;2.20;;;11.10;99.90;;;;;;5072363;28;20051;-73
2022/05/02 07:17:57;;;;;;;5.07;2.50;;;11.30;99.90;;;;;;5055571;28;20049;-73
2022/05/02 07:20:33;;;;;;;3.97;2.33;;;11.40;99.90;;;;;;5055616;28;20082;-73
2022/05/02 07:23:43;;;;;;;5.68;3.05;;;11.60;99.90;;;;;;5072167;28;20032;-73
2022/05/02 07:26:20;;;;;;;4.60;2.45;;;11.60;99.90;;;;;;5072112;28;20127;-73
2022/05/02 07:28:51;;;;;;;3.50;2.42;;;11.70;99.90;;;;;;5072293;28;20051;-74
2022/05/02 07:31:21;;;;;;;3.60;2.55;;;11.80;99.90;;;;;;5072311;28;20040;-73
2022/05/02 07:33:52;;;;;;;3.50;2.25;;;11.90;99.90;;;;;;5071940;28;20048;-73
2022/05/02 07:36:20;;;;;;;4.07;2.08;;;12.00;99.90;;;;;;5055285;28;20070;-72
2022/05/02 07:39:07;;;;;;;3.70;2.17;;;12.20;99.90;;;;;;5071902;28;20097;-73
2022/05/02 07:41:35;;;;;;;2.85;1.80;;;12.30;99.90;;;;;;5088763;28;20033;-72
2022/05/02 07:44:08;;;;;;;3.40;1.83;;;12.40;99.90;;;;;;5072491;28;20119;-73
2022/05/02 07:46:49;;;;;;;2.58;1.52;;;12.40;99.90;;;;;;5054764;28;20051;-74
2022/05/02 07:49:23;;;;;;;3.63;1.92;;;12.50;99.90;;;;;;5071731;28;20057;-73
2022/05/02 07:51:53;;;;;;;2.38;1.55;;;12.70;99.90;;;;;;5071681;28;20052;-74
2022/05/02 07:54:20;;;;;;;3.22;2.15;;;12.70;99.90;;;;;;5071737;28;20044;-73
2022/05/02 07:56:48;;;;;;;2.28;1.65;;;12.80;99.90;;;;;;5071668;28;20470;-73
2022/05/02 07:59:20;;;;;;;3.42;2.08;;;12.90;99.90;;;;;;5071731;28;20083;-73
2022/05/02 08:01:46;;;;;;;3.20;1.70;;;13.00;99.90;;;;;;5071873;28;20045;-73
2022/05/02 08:04:13;;;;;;;2.65;1.60;;;12.90;99.90;;;;;;5071580;28;20045;-73
2022/05/02 08:06:54;;;;;;;5.05;2.42;;;13.00;99.90;;;;;;5055114;28;20056;-74
2022/05/02 08:09:57;;;;;;;4.68;1.95;;;13.10;99.90;;;;;;5071827;28;20395;-73
2022/05/02 08:12:48;;;;;;;3.67;2.05;;;13.30;99.90;;;;;;5071802;28;20055;-73
2022/05/02 08:15:19;;;;;;;;;;;13.30;99.90;;;;;;5072084;28;20511;-73
2022/05/02 08:18:13;;;;;;;5.07;2.03;;;13.70;99.90;;;;;;5071478;28;19924;-73
2022/05/02 08:21:02;;;;;;;4.43;1.65;;;13.90;99.90;;;;;;5054787;28;20158;-73
2022/05/02 08:27:17;;;;;;;2.38;1.70;;;13.90;99.90;;;;;;5071396;28;20044;-73
2022/05/02 08:30:07;;;;;;;2.88;1.73;;;13.90;99.90;;;;;;5071622;28;20381;-74
2022/05/02 08:33:05;;;;;;;9.80;3.13;;;13.90;99.90;;;;;;5054901;28;20044;-73
2022/05/02 08:35:55;;;;;;;5.93;2.70;;;14.00;99.90;;;;;;5071277;28;20051;-71
2022/05/02 08:38:43;;;;;;;4.20;2.08;;;14.20;99.90;;;;;;5071354;28;20063;-73
2022/05/02 08:41:33;;;;;;;3.78;1.65;;;14.30;99.90;;;;;;5071311;28;20036;-74
2022/05/02 08:44:23;;;;;;;3.65;2.05;;;14.30;99.90;;;;;;5071206;28;20043;-74
2022/05/02 08:46:49;;;;;;;3.60;1.95;;;14.40;99.90;;;;;;5071201;28;20055;-73
2022/05/02 08:49:36;;;;;;;2.47;1.70;;;14.40;99.90;;;;;;5071423;28;20380;-73
2022/05/02 08:52:37;;;;;;;5.13;2.00;;;14.30;99.90;;;;;;5071233;28;20052;-73
2022/05/02 08:55:31;;;;;;;4.70;2.17;;;14.20;99.90;;;;;;5071441;28;20488;-73
2022/05/02 08:58:23;;;;;;;4.28;2.42;;;14.40;99.90;;;;;;5072300;28;20102;-73
2022/05/02 09:01:15;;;;;;;3.20;1.90;;;14.50;99.90;;;;;;5074945;28;20045;-73
2022/05/02 09:04:18;;;;;;;4.25;2.53;;;14.70;99.90;;;;;;5075025;28;20097;-73
2022/05/02 09:07:02;;;;;;;3.35;1.63;;;14.70;99.90;;;;;;5074818;28;20120;-73
2022/05/02 09:09:57;;;;;;;3.85;1.90;;;14.80;99.90;;;;;;5074704;28;20032;-73
2022/05/02 09:12:49;;;;;;;2.70;1.80;;;14.70;99.90;;;;;;5074620;28;20037;-73
2022/05/02 09:16:08;;;;;;;6.78;1.95;;;14.80;99.90;;;;;;5074744;28;20038;-73
2022/05/02 09:18:46;;;;;;;4.05;1.92;;;15.00;99.90;;;;;;5045522;28;20059;-73
2022/05/02 09:21:26;;;;;;;5.00;2.22;;;15.00;99.90;;;;;;5074593;28;20385;-73
2022/05/02 09:24:23;;;;;;;4.22;2.08;;;15.00;99.90;;;;;;5057870;28;20505;-73
2022/05/02 09:26:58;;;;;;;4.28;2.20;;;15.20;99.90;;;;;;5074460;28;20074;-73
2022/05/02 09:29:49;;;;;;;3.97;2.00;;;15.40;99.90;;;;;;5074731;28;20537;-73
2022/05/02 09:32:40;;;;;;;4.63;2.15;;;15.50;99.90;;;;;;5057773;28;20036;-73
2022/05/02 09:35:14;;;;;;;3.25;1.75;;;15.30;99.90;;;;;;5057603;28;20132;-74
2022/05/02 09:37:45;;;;;;;6.50;2.03;;;15.40;99.90;;;;;;5074175;28;20116;-73
2022/05/02 09:40:14;;;;;;;3.95;1.77;;;15.60;99.90;;;;;;5074211;28;20091;-74
2022/05/02 09:43:05;;;;;;;4.35;1.90;;;15.70;99.90;;;;;;5057602;28;20110;-74
2022/05/02 09:49:37;;;;;;;3.92;1.83;;;15.60;99.90;;;;;;5073883;28;20045;-74
2022/05/02 09:52:15;;;;;;;4.07;2.10;;;15.80;99.90;;;;;;5074325;28;20045;-74
2022/05/02 09:58:19;;;;;;;2.55;1.40;;;15.90;99.90;;;;;;5073851;28;20040;-73
2022/05/02 10:01:06;;;;;;;3.65;2.20;;;15.80;99.90;;;;;;5073845;28;20040;-73
2022/05/02 10:03:49;;;;;;;2.88;2.00;;;15.80;99.90;;;;;;5073797;28;20041;-73
2022/05/02 10:06:26;;;;;;;4.20;2.10;;;15.80;99.90;;;;;;5074090;28;20377;-74
2022/05/02 10:09:17;;;;;;;4.00;1.98;;;16.20;99.90;;;;;;5056661;28;20094;-74
2022/05/02 10:12:01;;;;;;;3.78;1.80;;;16.10;99.90;;;;;;5073646;28;20044;-73
2022/05/02 10:15:04;;;;;;;2.08;1.40;;;16.10;99.70;;;;;;5073901;28;20048;-72
2022/05/02 10:17:48;;;;;;;3.17;1.90;;;15.90;98.10;;;;;;5104880;28;20050;-74
2022/05/02 10:20:19;;;;;;;2.53;1.52;;;15.80;97.40;;;;;;5057187;28;20048;-73
2022/05/02 10:22:57;;;;;;;3.28;1.58;;;15.60;97.00;;;;;;5073658;28;20479;-73
2022/05/02 10:25:41;;;;;;;7.07;1.90;;;15.50;97.80;;;;;;5073345;28;20044;-73
2022/05/02 10:28:44;;;;;;;3.80;2.10;;;15.50;97.70;;;;;;5056682;28;20059;-73
2022/05/02 10:31:19;;;;;;;4.43;1.80;;;15.50;98.20;;;;;;5073447;28;20037;-72
2022/05/02 10:33:48;;;;;;;5.22;2.08;;;15.70;99.20;;;;;;5056609;28;20048;-73
2022/05/02 10:36:15;;;;;;;2.83;1.67;;;15.90;99.10;;;;;;5073067;28;20053;-72
2022/05/02 10:38:54;;;;;;;3.30;1.52;;;16.00;98.60;;;;;;5073065;28;20326;-72
2022/05/02 10:41:27;;;;;;;3.85;2.15;;;17.60;97.70;;;;;;5073026;28;20040;-72
2022/05/02 10:44:01;;;;;;;3.10;1.98;;;16.00;97.50;;;;;;5073202;28;20048;-73
2022/05/02 10:46:29;;;;;;;3.97;1.75;;;15.90;97.00;;;;;;5072941;28;20047;-72
2022/05/02 10:49:17;;;;;;;2.63;2.00;;;15.80;96.80;;;;;;5072922;28;20048;-72
2022/05/02 10:52:07;;;;;;;4.05;1.90;;;15.80;96.70;;;;;;5073034;28;20527;-71
2022/05/02 10:54:45;;;;;;;2.37;1.60;;;15.80;97.50;;;;;;5056410;28;20480;-71
2022/05/02 10:57:28;;;;;;;1.52;1.23;;;15.90;97.30;;;;;;5056073;28;20456;-73
2022/05/02 10:59:54;;;;;;;3.22;1.55;;;16.00;97.90;;;;;;5072628;28;20036;-72
2022/05/02 11:02:41;;;;;;;2.00;1.40;;;16.20;97.40;;;;;;5072873;28;20503;-72
2022/05/02 11:05:17;;;;;;;2.45;1.67;;;16.20;96.10;;;;;;5072564;28;20073;-73
2022/05/02 11:07:54;;;;;;;3.85;1.90;;;16.10;96.00;;;;;;5072485;28;20048;-72
2022/05/02 11:10:36;;;;;;;3.75;2.10;;;16.00;96.20;;;;;;5056016;28;20036;-72
2022/05/02 11:13:09;;;;;;;4.13;1.80;;;16.00;95.80;;;;;;5072390;28;20047;-73
2022/05/02 11:15:52;;;;;;;3.42;1.77;;;16.00;95.50;;;;;;5072170;28;20088;-73
2022/05/02 11:21:44;;;;;;;2.85;1.70;;;16.30;97.30;;;;;;5071578;28;20102;-73
2022/05/02 11:24:34;;;;;;;2.92;1.50;;;16.30;95.80;;;;;;5071830;28;20040;-73
2022/05/02 11:27:14;;;;;;;2.83;1.95;;;16.50;96.80;;;;;;5072415;28;20090;-73
2022/05/02 11:29:48;;;;;;;3.70;2.08;;;16.50;97.00;;;;;;5072382;28;20135;-73
2022/05/02 11:32:39;;;;;;;5.65;1.85;;;16.40;95.70;;;;;;5055440;28;20066;-73
2022/05/02 11:35:21;;;;;;;3.58;2.10;;;16.40;96.40;;;;;;5072052;28;20044;-73
2022/05/02 11:37:50;;;;;;;2.72;1.73;;;16.30;95.80;;;;;;5071828;28;20058;-74
2022/05/02 11:40:16;;;;;;;2.58;1.40;;;16.50;96.20;;;;;;5072211;28;20496;-74
2022/05/02 11:42:45;;;;;;;2.70;1.88;;;16.60;96.60;;;;;;5071860;28;20093;-73
2022/05/02 11:45:13;;;;;;;3.50;1.67;;;16.70;96.10;;;;;;5071822;28;20040;-73
2022/05/02 11:48:08;;;;;;;2.83;1.80;;;17.20;96.70;;;;;;5071880;28;20051;-73
2022/05/02 11:50:56;;;;;;;5.13;1.98;;;16.80;95.50;;;;;;5054684;28;20052;-74
2022/05/02 11:53:27;;;;;;;3.13;1.55;;;16.60;93.70;;;;;;5055133;28;20124;-74
2022/05/02 11:55:55;;;;;;;6.63;1.83;;;16.60;94.40;;;;;;5055207;28;20084;-73
2022/05/02 11:58:23;;;;;;;2.97;1.70;;;16.50;94.30;;;;;;5071678;28;20161;-73
2022/05/02 12:01:01;;;;;;;1.95;1.27;;;16.60;94.40;;;;;;5071742;28;20132;-74
2022/05/02 12:03:50;;;;;;;3.88;1.52;;;16.60;94.90;;;;;;5071673;28;20045;-74
2022/05/02 12:06:19;;;;;;;2.53;1.70;;;16.70;92.90;;;;;;5054813;28;20135;-73
2022/05/02 12:08:48;;;;;;;3.25;1.60;;;16.60;93.80;;;;;;5071595;28;20043;-74
2022/05/02 12:11:15;;;;;;;3.55;2.38;;;16.70;94.70;;;;;;5071559;28;20040;-73
2022/05/02 12:13:47;;;;;;;3.63;1.60;;;16.70;94.00;;;;;;5071781;28;20468;-74
2022/05/02 12:16:17;;;;;;;3.13;1.75;;;16.80;95.10;;;;;;5071293;28;20103;-73
2022/05/02 12:18:48;;;;;;;4.07;2.08;;;17.00;94.60;;;;;;5071821;28;20052;-72
2022/05/02 12:21:23;;;;;;;3.65;1.73;;;17.10;95.00;;;;;;5071716;28;20040;-74
2022/05/02 12:23:51;;;;;;;2.90;1.73;;;17.20;93.50;;;;;;5071716;28;20045;-74
2022/05/02 12:26:22;;;;;;;3.15;2.03;;;17.30;94.50;;;;;;5071782;28;20127;-73
2022/05/02 12:28:51;;;;;;;5.05;1.90;;;17.30;93.60;;;;;;5054971;28;20488;-73
2022/05/02 12:31:32;;;;;;;2.63;1.65;;;17.50;94.20;;;;;;5071413;28;20048;-73
2022/05/02 12:34:16;;;;;;;4.03;1.63;;;17.30;93.20;;;;;;5075172;28;20527;-74
2022/05/02 12:36:45;;;;;;;4.18;2.17;;;17.50;94.20;;;;;;5042163;28;20560;-74
2022/05/02 12:39:23;;;;;;;3.25;1.98;;;17.50;91.80;;;;;;5075430;28;20102;-74
2022/05/02 12:41:53;;;;;;;4.07;1.98;;;17.30;92.80;;;;;;5075654;28;20048;-74
2022/05/02 12:44:28;;;;;;;4.30;2.45;;;17.30;92.90;;;;;;5075219;28;20044;-73
2022/05/02 12:47:03;;;;;;;3.60;1.95;;;17.40;94.60;;;;;;5058746;28;20491;-75
2022/05/02 12:49:41;;;;;;;6.60;2.03;;;17.50;94.80;;;;;;5058499;28;20036;-73
2022/05/02 12:52:07;;;;;;;3.22;2.25;;;17.60;95.10;;;;;;5075787;28;20084;-73
2022/05/02 12:54:33;;;;;;;2.92;1.60;;;17.70;94.50;;;;;;5058476;28;20123;-73
2022/05/02 13:02:45;;;;;;;5.00;2.17;;;17.90;94.70;;;;;;5074855;28;20040;-73
2022/05/02 13:05:17;;;;;;;5.28;2.90;;;18.00;94.20;;;;;;5074813;28;20033;-74
2022/05/02 13:07:47;;;;;;;3.97;2.28;;;17.80;93.40;;;;;;5058166;28;20045;-73
2022/05/02 13:10:20;;;;;;;5.78;2.88;;;17.70;94.00;;;;;;5074739;28;20094;-73
2022/05/02 13:13:05;;;;;;;3.78;2.17;;;17.80;94.10;;;;;;5074647;28;20052;-73
2022/05/02 13:15:42;;;;;;;4.53;2.15;;;17.90;93.70;;;;;;5074513;28;20061;-73
2022/05/02 13:18:12;;;;;;;4.72;2.25;;;17.80;92.30;;;;;;5074499;28;20049;-73
2022/05/02 13:20:39;;;;;;;4.30;2.33;;;17.70;93.00;;;;;;5074526;28;20063;-72
2022/05/02 13:23:10;;;;;;;3.65;2.33;;;17.80;93.50;;;;;;5074751;28;20392;-73
2022/05/02 13:26:11;;;;;;;3.95;1.85;;;17.80;93.30;;;;;;5074735;28;20488;-73
2022/05/02 13:29:02;;;;;;;5.70;1.98;;;17.80;93.40;;;;;;5074431;28;20052;-73
2022/05/02 13:31:50;;;;;;;4.03;1.75;;;18.00;93.80;;;;;;5057896;28;20044;-73
2022/05/02 13:34:31;;;;;;;2.90;1.83;;;18.10;93.50;;;;;;5074342;28;20055;-73
2022/05/02 13:37:00;;;;;;;;;;;18.20;92.80;;;;;;5074770;28;20059;-73
2022/05/02 13:39:43;;;;;;;3.10;1.88;;;18.30;92.30;;;;;;5057891;28;19917;-73
2022/05/02 13:42:17;;;;;;;3.42;2.05;;;18.30;93.00;;;;;;5074186;28;20052;-72
2022/05/02 13:44:53;;;;;;;3.63;2.17;;;18.40;93.00;;;;;;5073363;28;20044;-73
2022/05/02 13:47:22;;;;;;;2.22;1.75;;;18.50;93.30;;;;;;5074055;28;20097;-73
2022/05/02 13:50:08;;;;;;;3.03;1.60;;;18.60;93.20;;;;;;5057606;28;20514;-73
2022/05/02 13:52:52;;;;;;;3.03;1.88;;;18.60;93.10;;;;;;5057572;28;20528;-73
2022/05/02 13:55:29;;;;;;;4.60;1.90;;;18.90;97.80;;;;;;5074062;28;20098;-73
2022/05/02 13:58:04;;;;;;;5.10;2.20;;;18.90;92.10;;;;;;5073818;28;20045;-72
2022/05/02 14:04:02;;;;;;;2.67;1.50;;;18.80;91.90;;;;;;5073782;28;20044;-72
2022/05/02 14:06:29;;;;;;;3.50;1.70;;;18.70;91.70;;;;;;5073356;28;20075;-74